sensor_id;sensor_type;location;lat;lon;timestamp;temperature;humidity
78028;DHT22;67235;45.638;11.714;2023-06-19T00:03:39;22.10;69.50
78028;DHT22;67235;45.638;11.714;2023-06-19T00:06:49;22.10;69.90
78028;DHT22;67235;45.638;11.714;2023-06-19T00:10:05;22.00;70.20
78028;DHT22;67235;45.638;11.714;2023-06-19T00:13:17;22.10;70.40
78028;DHT22;67235;45.638;11.714;2023-06-19T00:17:01;21.90;70.80
78028;DHT22;67235;45.638;11.714;2023-06-19T00:20:21;21.90;70.90
78028;DHT22;67235;45.638;11.714;2023-06-19T00:23:49;21.90;71.30
78028;DHT22;67235;45.638;11.714;2023-06-19T00:26:49;21.90;71.10
78028;DHT22;67235;45.638;11.714;2023-06-19T00:29:39;21.80;71.00
78028;DHT22;67235;45.638;11.714;2023-06-19T00:35:43;21.80;70.70
78028;DHT22;67235;45.638;11.714;2023-06-19T00:38:47;21.70;71.20
78028;DHT22;67235;45.638;11.714;2023-06-19T00:41:49;21.60;71.50
78028;DHT22;67235;45.638;11.714;2023-06-19T00:45:28;21.60;71.40
78028;DHT22;67235;45.638;11.714;2023-06-19T00:49:05;21.50;71.20
78028;DHT22;67235;45.638;11.714;2023-06-19T00:55:13;21.40;71.60
78028;DHT22;67235;45.638;11.714;2023-06-19T00:58:23;21.40;72.20
78028;DHT22;67235;45.638;11.714;2023-06-19T01:00:59;21.40;71.60
78028;DHT22;67235;45.638;11.714;2023-06-19T01:03:38;21.40;72.00
78028;DHT22;67235;45.638;11.714;2023-06-19T01:09:07;21.30;71.90
78028;DHT22;67235;45.638;11.714;2023-06-19T01:12:20;21.30;72.40
78028;DHT22;67235;45.638;11.714;2023-06-19T01:15:32;21.30;72.00
78028;DHT22;67235;45.638;11.714;2023-06-19T01:21:21;21.20;72.40
78028;DHT22;67235;45.638;11.714;2023-06-19T01:38:57;21.00;72.40
78028;DHT22;67235;45.638;11.714;2023-06-19T01:42:34;21.00;72.50
78028;DHT22;67235;45.638;11.714;2023-06-19T01:48:38;21.00;72.80
78028;DHT22;67235;45.638;11.714;2023-06-19T01:51:45;21.00;73.00
78028;DHT22;67235;45.638;11.714;2023-06-19T01:54:55;21.00;72.80
78028;DHT22;67235;45.638;11.714;2023-06-19T01:58:35;21.00;72.90
78028;DHT22;67235;45.638;11.714;2023-06-19T02:04:59;20.90;73.90
78028;DHT22;67235;45.638;11.714;2023-06-19T02:11:15;20.80;74.00
78028;DHT22;67235;45.638;11.714;2023-06-19T02:14:33;20.80;74.40
78028;DHT22;67235;45.638;11.714;2023-06-19T02:17:48;20.80;74.40
78028;DHT22;67235;45.638;11.714;2023-06-19T02:21:03;20.70;74.70
78028;DHT22;67235;45.638;11.714;2023-06-19T02:24:10;20.80;74.60
78028;DHT22;67235;45.638;11.714;2023-06-19T02:32:32;20.90;74.60
78028;DHT22;67235;45.638;11.714;2023-06-19T02:35:09;20.80;74.40
78028;DHT22;67235;45.638;11.714;2023-06-19T02:44:04;20.70;74.40
78028;DHT22;67235;45.638;11.714;2023-06-19T02:47:32;20.90;74.20
78028;DHT22;67235;45.638;11.714;2023-06-19T02:50:53;20.70;74.10
78028;DHT22;67235;45.638;11.714;2023-06-19T03:00:27;20.90;72.90
78028;DHT22;67235;45.638;11.714;2023-06-19T03:03:56;21.00;73.10
78028;DHT22;67235;45.638;11.714;2023-06-19T03:07:16;21.00;73.20
78028;DHT22;67235;45.638;11.714;2023-06-19T03:10:27;21.00;73.30
78028;DHT22;67235;45.638;11.714;2023-06-19T03:13:07;21.00;73.20
78028;DHT22;67235;45.638;11.714;2023-06-19T03:16:15;21.00;73.20
78028;DHT22;67235;45.638;11.714;2023-06-19T03:19:21;21.00;73.10
78028;DHT22;67235;45.638;11.714;2023-06-19T03:22:55;21.10;73.30
78028;DHT22;67235;45.638;11.714;2023-06-19T03:26:29;21.00;73.10
78028;DHT22;67235;45.638;11.714;2023-06-19T03:30:16;21.10;73.10
78028;DHT22;67235;45.638;11.714;2023-06-19T03:37:30;21.10;72.80
78028;DHT22;67235;45.638;11.714;2023-06-19T03:40:46;21.10;73.00
78028;DHT22;67235;45.638;11.714;2023-06-19T03:44:14;21.20;73.10
78028;DHT22;67235;45.638;11.714;2023-06-19T03:47:40;21.20;73.20
78028;DHT22;67235;45.638;11.714;2023-06-19T03:50:43;21.10;73.40
78028;DHT22;67235;45.638;11.714;2023-06-19T03:53:55;21.20;73.30
78028;DHT22;67235;45.638;11.714;2023-06-19T03:57:04;21.30;73.40
78028;DHT22;67235;45.638;11.714;2023-06-19T04:00:04;21.30;73.60
78028;DHT22;67235;45.638;11.714;2023-06-19T04:03:51;21.30;73.50
78028;DHT22;67235;45.638;11.714;2023-06-19T04:06:50;21.40;73.50
78028;DHT22;67235;45.638;11.714;2023-06-19T04:09:47;21.40;73.50
78028;DHT22;67235;45.638;11.714;2023-06-19T04:12:34;21.50;73.40
78028;DHT22;67235;45.638;11.714;2023-06-19T04:18:03;21.90;72.20
78028;DHT22;67235;45.638;11.714;2023-06-19T04:23:34;21.90;72.20
78028;DHT22;67235;45.638;11.714;2023-06-19T04:26:53;21.80;72.50
78028;DHT22;67235;45.638;11.714;2023-06-19T04:30:14;21.80;72.70
78028;DHT22;67235;45.638;11.714;2023-06-19T04:33:24;21.80;72.90
78028;DHT22;67235;45.638;11.714;2023-06-19T04:37:11;21.90;73.00
78028;DHT22;67235;45.638;11.714;2023-06-19T04:40:15;22.00;73.30
78028;DHT22;67235;45.638;11.714;2023-06-19T04:48:47;22.30;73.90
78028;DHT22;67235;45.638;11.714;2023-06-19T04:58:00;22.60;73.90
78028;DHT22;67235;45.638;11.714;2023-06-19T05:00:49;22.60;73.50
78028;DHT22;67235;45.638;11.714;2023-06-19T05:04:27;22.80;73.40
78028;DHT22;67235;45.638;11.714;2023-06-19T05:07:17;22.80;73.20
78028;DHT22;67235;45.638;11.714;2023-06-19T05:10:44;22.80;73.50
78028;DHT22;67235;45.638;11.714;2023-06-19T05:13:57;22.90;73.00
78028;DHT22;67235;45.638;11.714;2023-06-19T05:17:31;23.00;72.90
78028;DHT22;67235;45.638;11.714;2023-06-19T05:20:54;23.10;72.80
78028;DHT22;67235;45.638;11.714;2023-06-19T05:24:12;23.20;72.80
78028;DHT22;67235;45.638;11.714;2023-06-19T05:26:49;23.20;72.20
78028;DHT22;67235;45.638;11.714;2023-06-19T05:30:24;23.40;71.80
78028;DHT22;67235;45.638;11.714;2023-06-19T05:33:48;23.60;72.30
78028;DHT22;67235;45.638;11.714;2023-06-19T05:36:27;24.00;72.30
78028;DHT22;67235;45.638;11.714;2023-06-19T05:38:54;24.70;70.80
78028;DHT22;67235;45.638;11.714;2023-06-19T05:41:29;25.40;69.90
78028;DHT22;67235;45.638;11.714;2023-06-19T05:44:35;25.90;68.90
78028;DHT22;67235;45.638;11.714;2023-06-19T05:50:22;27.00;63.30
78028;DHT22;67235;45.638;11.714;2023-06-19T05:53:28;27.50;60.90
78028;DHT22;67235;45.638;11.714;2023-06-19T05:56:43;28.00;60.00
78028;DHT22;67235;45.638;11.714;2023-06-19T06:02:25;28.70;56.50
78028;DHT22;67235;45.638;11.714;2023-06-19T06:04:57;29.00;56.70
78028;DHT22;67235;45.638;11.714;2023-06-19T06:07:43;29.20;53.90
78028;DHT22;67235;45.638;11.714;2023-06-19T06:10:22;29.60;52.20
78028;DHT22;67235;45.638;11.714;2023-06-19T06:12:51;29.90;52.90
78028;DHT22;67235;45.638;11.714;2023-06-19T06:18:40;30.20;51.50
78028;DHT22;67235;45.638;11.714;2023-06-19T06:21:17;30.50;52.50
78028;DHT22;67235;45.638;11.714;2023-06-19T06:24:31;30.90;50.40
78028;DHT22;67235;45.638;11.714;2023-06-19T06:33:39;31.00;47.20
78028;DHT22;67235;45.638;11.714;2023-06-19T06:36:58;30.90;47.90
78028;DHT22;67235;45.638;11.714;2023-06-19T06:39:41;30.80;49.60
78028;DHT22;67235;45.638;11.714;2023-06-19T06:42:55;30.50;49.90
78028;DHT22;67235;45.638;11.714;2023-06-19T06:46:36;30.10;50.50
78028;DHT22;67235;45.638;11.714;2023-06-19T06:49:40;30.10;51.70
78028;DHT22;67235;45.638;11.714;2023-06-19T06:52:32;30.20;48.10
78028;DHT22;67235;45.638;11.714;2023-06-19T06:55:45;30.10;51.10
78028;DHT22;67235;45.638;11.714;2023-06-19T06:59:05;29.90;52.30
78028;DHT22;67235;45.638;11.714;2023-06-19T07:02:09;30.50;49.40
78028;DHT22;67235;45.638;11.714;2023-06-19T07:31:32;31.80;44.30
78028;DHT22;67235;45.638;11.714;2023-06-19T07:33:58;31.60;43.40
78028;DHT22;67235;45.638;11.714;2023-06-19T07:36:24;31.60;45.50
78028;DHT22;67235;45.638;11.714;2023-06-19T07:38:51;32.00;43.80
78028;DHT22;67235;45.638;11.714;2023-06-19T07:41:17;32.40;41.90
78028;DHT22;67235;45.638;11.714;2023-06-19T07:43:43;32.70;41.70
78028;DHT22;67235;45.638;11.714;2023-06-19T07:46:09;33.00;40.80
78028;DHT22;67235;45.638;11.714;2023-06-19T07:48:35;33.00;41.30
78028;DHT22;67235;45.638;11.714;2023-06-19T07:51:35;33.40;39.90
78028;DHT22;67235;45.638;11.714;2023-06-19T07:54:01;33.50;40.30
78028;DHT22;67235;45.638;11.714;2023-06-19T08:03:39;33.90;39.20
78028;DHT22;67235;45.638;11.714;2023-06-19T08:06:08;34.10;37.70
78028;DHT22;67235;45.638;11.714;2023-06-19T08:16:00;33.90;38.20
78028;DHT22;67235;45.638;11.714;2023-06-19T08:18:35;34.30;37.70
78028;DHT22;67235;45.638;11.714;2023-06-19T08:21:11;34.00;38.80
78028;DHT22;67235;45.638;11.714;2023-06-19T08:23:49;34.30;37.30
78028;DHT22;67235;45.638;11.714;2023-06-19T08:26:29;34.40;37.70
78028;DHT22;67235;45.638;11.714;2023-06-19T08:29:15;34.30;37.00
78028;DHT22;67235;45.638;11.714;2023-06-19T08:31:55;34.30;35.40
78028;DHT22;67235;45.638;11.714;2023-06-19T08:37:30;34.00;36.00
78028;DHT22;67235;45.638;11.714;2023-06-19T08:40:34;34.00;38.30
78028;DHT22;67235;45.638;11.714;2023-06-19T08:43:17;33.90;34.60
78028;DHT22;67235;45.638;11.714;2023-06-19T08:48:26;33.70;37.10
78028;DHT22;67235;45.638;11.714;2023-06-19T08:51:13;33.60;38.60
78028;DHT22;67235;45.638;11.714;2023-06-19T09:00:35;33.30;38.70
78028;DHT22;67235;45.638;11.714;2023-06-19T09:03:20;33.70;34.90
78028;DHT22;67235;45.638;11.714;2023-06-19T09:11:13;33.60;37.30
78028;DHT22;67235;45.638;11.714;2023-06-19T09:20:42;34.10;36.60
78028;DHT22;67235;45.638;11.714;2023-06-19T09:23:40;33.80;36.70
78028;DHT22;67235;45.638;11.714;2023-06-19T09:52:25;34.10;34.90
78028;DHT22;67235;45.638;11.714;2023-06-19T10:05:08;34.30;35.70
78028;DHT22;67235;45.638;11.714;2023-06-19T10:10:27;34.60;32.50
78028;DHT22;67235;45.638;11.714;2023-06-19T10:13:20;34.80;35.00
78028;DHT22;67235;45.638;11.714;2023-06-19T10:16:01;34.70;32.40
78028;DHT22;67235;45.638;11.714;2023-06-19T14:02:47;33.10;28.80
78028;DHT22;67235;45.638;11.714;2023-06-19T16:59:40;31.80;35.30
78028;DHT22;67235;45.638;11.714;2023-06-19T17:02:06;31.70;34.50
78028;DHT22;67235;45.638;11.714;2023-06-19T17:04:32;31.80;34.80
78028;DHT22;67235;45.638;11.714;2023-06-19T17:06:59;31.70;38.10
78028;DHT22;67235;45.638;11.714;2023-06-19T17:09:25;31.60;37.30
78028;DHT22;67235;45.638;11.714;2023-06-19T17:11:51;31.60;34.80
78028;DHT22;67235;45.638;11.714;2023-06-19T17:14:17;31.50;35.60
78028;DHT22;67235;45.638;11.714;2023-06-19T17:16:43;31.50;36.50
78028;DHT22;67235;45.638;11.714;2023-06-19T17:19:09;31.40;37.60
78028;DHT22;67235;45.638;11.714;2023-06-19T17:21:35;31.40;37.90
78028;DHT22;67235;45.638;11.714;2023-06-19T17:24:00;31.30;36.50
78028;DHT22;67235;45.638;11.714;2023-06-19T17:26:27;31.30;34.10
78028;DHT22;67235;45.638;11.714;2023-06-19T17:28:52;31.30;36.30
78028;DHT22;67235;45.638;11.714;2023-06-19T17:31:18;31.30;38.00
78028;DHT22;67235;45.638;11.714;2023-06-19T17:33:44;31.20;36.90
78028;DHT22;67235;45.638;11.714;2023-06-19T17:36:10;31.20;36.90
78028;DHT22;67235;45.638;11.714;2023-06-19T17:38:36;31.20;37.50
78028;DHT22;67235;45.638;11.714;2023-06-19T17:41:02;31.10;38.30
78028;DHT22;67235;45.638;11.714;2023-06-19T17:43:29;31.00;37.70
78028;DHT22;67235;45.638;11.714;2023-06-19T17:45:55;31.00;38.70
78028;DHT22;67235;45.638;11.714;2023-06-19T17:48:21;30.90;38.40
78028;DHT22;67235;45.638;11.714;2023-06-19T17:50:47;30.90;37.70
78028;DHT22;67235;45.638;11.714;2023-06-19T17:53:13;30.80;37.10
78028;DHT22;67235;45.638;11.714;2023-06-19T17:55:39;30.80;39.20
78028;DHT22;67235;45.638;11.714;2023-06-19T17:58:07;30.70;38.90
78028;DHT22;67235;45.638;11.714;2023-06-19T18:00:33;30.60;39.50
78028;DHT22;67235;45.638;11.714;2023-06-19T18:02:59;30.60;38.00
78028;DHT22;67235;45.638;11.714;2023-06-19T18:05:25;30.50;38.00
78028;DHT22;67235;45.638;11.714;2023-06-19T18:07:51;30.50;40.00
78028;DHT22;67235;45.638;11.714;2023-06-19T18:10:17;30.40;40.50
78028;DHT22;67235;45.638;11.714;2023-06-19T18:12:43;30.20;40.60
78028;DHT22;67235;45.638;11.714;2023-06-19T18:15:10;30.20;40.20
78028;DHT22;67235;45.638;11.714;2023-06-19T18:17:36;30.10;41.80
78028;DHT22;67235;45.638;11.714;2023-06-19T18:20:02;29.90;42.80
78028;DHT22;67235;45.638;11.714;2023-06-19T18:22:28;29.80;43.70
78028;DHT22;67235;45.638;11.714;2023-06-19T18:24:54;29.60;45.70
78028;DHT22;67235;45.638;11.714;2023-06-19T18:27:21;29.40;46.20
78028;DHT22;67235;45.638;11.714;2023-06-19T18:29:46;29.30;45.50
78028;DHT22;67235;45.638;11.714;2023-06-19T18:32:12;29.10;49.30
78028;DHT22;67235;45.638;11.714;2023-06-19T18:34:38;28.90;49.20
78028;DHT22;67235;45.638;11.714;2023-06-19T18:37:04;28.70;49.00
78028;DHT22;67235;45.638;11.714;2023-06-19T18:39:30;28.50;49.10
78028;DHT22;67235;45.638;11.714;2023-06-19T18:42:00;28.40;48.70
78028;DHT22;67235;45.638;11.714;2023-06-19T18:44:26;28.30;52.10
78028;DHT22;67235;45.638;11.714;2023-06-19T18:46:51;28.00;52.70
78028;DHT22;67235;45.638;11.714;2023-06-19T18:49:17;27.90;54.90
78028;DHT22;67235;45.638;11.714;2023-06-19T18:51:43;27.70;54.20
78028;DHT22;67235;45.638;11.714;2023-06-19T18:54:09;27.60;56.10
78028;DHT22;67235;45.638;11.714;2023-06-19T18:56:35;27.40;57.40
78028;DHT22;67235;45.638;11.714;2023-06-19T18:59:01;27.40;57.40
78028;DHT22;67235;45.638;11.714;2023-06-19T19:01:26;27.40;55.80
78028;DHT22;67235;45.638;11.714;2023-06-19T19:03:52;27.50;56.90
78028;DHT22;67235;45.638;11.714;2023-06-19T19:06:18;27.50;59.00
78028;DHT22;67235;45.638;11.714;2023-06-19T19:08:44;27.40;59.70
78028;DHT22;67235;45.638;11.714;2023-06-19T19:11:10;27.40;59.20
78028;DHT22;67235;45.638;11.714;2023-06-19T19:13:36;27.40;59.80
78028;DHT22;67235;45.638;11.714;2023-06-19T19:16:02;27.40;59.90
78028;DHT22;67235;45.638;11.714;2023-06-19T19:18:28;27.40;60.80
78028;DHT22;67235;45.638;11.714;2023-06-19T19:20:53;27.50;60.90
78028;DHT22;67235;45.638;11.714;2023-06-19T19:23:19;27.50;60.40
78028;DHT22;67235;45.638;11.714;2023-06-19T19:25:45;27.40;61.20
78028;DHT22;67235;45.638;11.714;2023-06-19T19:28:11;27.40;61.50
78028;DHT22;67235;45.638;11.714;2023-06-19T19:30:44;27.40;61.70
78028;DHT22;67235;45.638;11.714;2023-06-19T19:33:10;27.40;61.40
78028;DHT22;67235;45.638;11.714;2023-06-19T19:35:36;27.30;62.00
78028;DHT22;67235;45.638;11.714;2023-06-19T19:38:02;27.30;61.70
78028;DHT22;67235;45.638;11.714;2023-06-19T19:40:28;27.20;62.10
78028;DHT22;67235;45.638;11.714;2023-06-19T19:42:54;27.30;62.00
78028;DHT22;67235;45.638;11.714;2023-06-19T19:45:19;27.20;62.10
78028;DHT22;67235;45.638;11.714;2023-06-19T19:47:45;27.20;62.10
78028;DHT22;67235;45.638;11.714;2023-06-19T19:50:11;27.10;61.90
78028;DHT22;67235;45.638;11.714;2023-06-19T19:52:37;27.10;62.10
78028;DHT22;67235;45.638;11.714;2023-06-19T19:55:04;27.00;62.40
78028;DHT22;67235;45.638;11.714;2023-06-19T19:57:30;26.90;62.30
78028;DHT22;67235;45.638;11.714;2023-06-19T19:59:55;26.90;62.60
78028;DHT22;67235;45.638;11.714;2023-06-19T20:02:21;26.80;62.90
78028;DHT22;67235;45.638;11.714;2023-06-19T20:04:47;26.70;64.30
78028;DHT22;67235;45.638;11.714;2023-06-19T20:07:13;26.60;65.20
78028;DHT22;67235;45.638;11.714;2023-06-19T20:09:39;26.50;65.80
78028;DHT22;67235;45.638;11.714;2023-06-19T20:12:06;26.40;66.40
78028;DHT22;67235;45.638;11.714;2023-06-19T20:14:32;26.40;67.00
78028;DHT22;67235;45.638;11.714;2023-06-19T20:16:58;26.40;67.30
78028;DHT22;67235;45.638;11.714;2023-06-19T20:19:24;26.40;68.20
78028;DHT22;67235;45.638;11.714;2023-06-19T20:21:50;26.30;68.40
78028;DHT22;67235;45.638;11.714;2023-06-19T20:24:15;26.30;68.30
78028;DHT22;67235;45.638;11.714;2023-06-19T20:26:41;26.30;68.20
78028;DHT22;67235;45.638;11.714;2023-06-19T20:29:07;26.30;68.10
78028;DHT22;67235;45.638;11.714;2023-06-19T20:31:34;26.30;68.10
78028;DHT22;67235;45.638;11.714;2023-06-19T20:33:59;26.30;68.40
78028;DHT22;67235;45.638;11.714;2023-06-19T20:36:25;26.10;68.30
78028;DHT22;67235;45.638;11.714;2023-06-19T20:38:51;26.10;68.50
78028;DHT22;67235;45.638;11.714;2023-06-19T20:41:17;26.10;68.60
78028;DHT22;67235;45.638;11.714;2023-06-19T20:43:43;26.00;68.30
78028;DHT22;67235;45.638;11.714;2023-06-19T20:46:14;26.20;68.30
78028;DHT22;67235;45.638;11.714;2023-06-19T20:48:43;26.20;68.30
78028;DHT22;67235;45.638;11.714;2023-06-19T20:51:09;26.20;68.30
78028;DHT22;67235;45.638;11.714;2023-06-19T20:53:36;26.00;68.40
78028;DHT22;67235;45.638;11.714;2023-06-19T20:56:02;26.00;68.60
78028;DHT22;67235;45.638;11.714;2023-06-19T20:58:27;26.00;68.70
78028;DHT22;67235;45.638;11.714;2023-06-19T21:00:54;26.00;68.60
78028;DHT22;67235;45.638;11.714;2023-06-19T21:03:20;26.10;68.20
78028;DHT22;67235;45.638;11.714;2023-06-19T21:05:47;26.00;68.50
78028;DHT22;67235;45.638;11.714;2023-06-19T21:08:13;26.00;68.50
78028;DHT22;67235;45.638;11.714;2023-06-19T21:10:39;26.00;68.20
78028;DHT22;67235;45.638;11.714;2023-06-19T21:13:09;25.90;68.30
78028;DHT22;67235;45.638;11.714;2023-06-19T21:15:38;25.90;68.40
78028;DHT22;67235;45.638;11.714;2023-06-19T21:18:04;25.90;68.60
78028;DHT22;67235;45.638;11.714;2023-06-19T21:20:30;25.90;68.50
78028;DHT22;67235;45.638;11.714;2023-06-19T21:22:56;25.90;68.60
78028;DHT22;67235;45.638;11.714;2023-06-19T21:25:23;25.80;68.60
78028;DHT22;67235;45.638;11.714;2023-06-19T21:27:49;25.70;68.80
78028;DHT22;67235;45.638;11.714;2023-06-19T21:30:15;25.70;68.70
78028;DHT22;67235;45.638;11.714;2023-06-19T21:32:41;25.60;69.00
78028;DHT22;67235;45.638;11.714;2023-06-19T21:35:07;25.60;69.20
78028;DHT22;67235;45.638;11.714;2023-06-19T21:37:33;25.60;69.30
78028;DHT22;67235;45.638;11.714;2023-06-19T21:40:00;25.50;69.30
78028;DHT22;67235;45.638;11.714;2023-06-19T21:42:28;25.50;69.40
78028;DHT22;67235;45.638;11.714;2023-06-19T21:44:54;25.40;69.70
78028;DHT22;67235;45.638;11.714;2023-06-19T21:47:20;25.40;69.70
78028;DHT22;67235;45.638;11.714;2023-06-19T21:49:46;25.40;69.50
78028;DHT22;67235;45.638;11.714;2023-06-19T21:52:12;25.40;69.70
78028;DHT22;67235;45.638;11.714;2023-06-19T21:54:38;25.40;69.90
78028;DHT22;67235;45.638;11.714;2023-06-19T21:57:04;25.30;70.00
78028;DHT22;67235;45.638;11.714;2023-06-19T21:59:30;25.20;70.20
78028;DHT22;67235;45.638;11.714;2023-06-19T22:01:56;25.20;70.00
78028;DHT22;67235;45.638;11.714;2023-06-19T22:04:21;25.30;70.00
78028;DHT22;67235;45.638;11.714;2023-06-19T22:06:47;25.30;70.00
78028;DHT22;67235;45.638;11.714;2023-06-19T22:09:13;25.30;70.10
78028;DHT22;67235;45.638;11.714;2023-06-19T22:11:39;25.30;70.20
78028;DHT22;67235;45.638;11.714;2023-06-19T22:14:05;25.30;70.20
78028;DHT22;67235;45.638;11.714;2023-06-19T22:16:31;25.20;70.20
78028;DHT22;67235;45.638;11.714;2023-06-19T22:18:57;25.20;70.30
78028;DHT22;67235;45.638;11.714;2023-06-19T22:21:26;25.10;70.30
78028;DHT22;67235;45.638;11.714;2023-06-19T22:23:53;25.10;70.30
78028;DHT22;67235;45.638;11.714;2023-06-19T22:26:18;25.10;70.20
78028;DHT22;67235;45.638;11.714;2023-06-19T22:28:44;25.10;70.30
78028;DHT22;67235;45.638;11.714;2023-06-19T22:31:11;24.90;70.40
78028;DHT22;67235;45.638;11.714;2023-06-19T22:33:36;25.00;70.60
78028;DHT22;67235;45.638;11.714;2023-06-19T22:36:02;24.80;70.90
78028;DHT22;67235;45.638;11.714;2023-06-19T22:38:28;24.90;71.10
78028;DHT22;67235;45.638;11.714;2023-06-19T22:40:54;24.80;71.00
78028;DHT22;67235;45.638;11.714;2023-06-19T22:43:20;24.70;71.20
78028;DHT22;67235;45.638;11.714;2023-06-19T22:45:46;24.70;71.10
78028;DHT22;67235;45.638;11.714;2023-06-19T22:48:12;24.70;71.00
78028;DHT22;67235;45.638;11.714;2023-06-19T22:50:38;24.70;71.20
78028;DHT22;67235;45.638;11.714;2023-06-19T22:53:04;24.50;71.10
78028;DHT22;67235;45.638;11.714;2023-06-19T22:55:30;24.50;71.50
78028;DHT22;67235;45.638;11.714;2023-06-19T22:57:56;24.40;71.60
78028;DHT22;67235;45.638;11.714;2023-06-19T23:00:22;24.30;71.60
78028;DHT22;67235;45.638;11.714;2023-06-19T23:02:47;24.30;72.00
78028;DHT22;67235;45.638;11.714;2023-06-19T23:05:14;24.20;72.00
78028;DHT22;67235;45.638;11.714;2023-06-19T23:07:41;24.20;72.40
78028;DHT22;67235;45.638;11.714;2023-06-19T23:10:07;24.10;72.40
78028;DHT22;67235;45.638;11.714;2023-06-19T23:12:33;24.10;72.80
78028;DHT22;67235;45.638;11.714;2023-06-19T23:14:59;24.10;72.60
78028;DHT22;67235;45.638;11.714;2023-06-19T23:17:25;24.00;72.50
78028;DHT22;67235;45.638;11.714;2023-06-19T23:19:52;23.90;72.60
78028;DHT22;67235;45.638;11.714;2023-06-19T23:22:18;23.90;72.90
78028;DHT22;67235;45.638;11.714;2023-06-19T23:24:51;23.80;72.90
78028;DHT22;67235;45.638;11.714;2023-06-19T23:27:16;23.70;72.50
78028;DHT22;67235;45.638;11.714;2023-06-19T23:29:44;23.70;72.80
78028;DHT22;67235;45.638;11.714;2023-06-19T23:32:10;23.70;73.20
78028;DHT22;67235;45.638;11.714;2023-06-19T23:34:36;23.60;73.30
78028;DHT22;67235;45.638;11.714;2023-06-19T23:37:02;23.60;73.40
78028;DHT22;67235;45.638;11.714;2023-06-19T23:39:27;23.70;73.30
78028;DHT22;67235;45.638;11.714;2023-06-19T23:41:53;23.70;73.50
78028;DHT22;67235;45.638;11.714;2023-06-19T23:44:19;23.80;73.20
78028;DHT22;67235;45.638;11.714;2023-06-19T23:46:45;23.70;73.20
78028;DHT22;67235;45.638;11.714;2023-06-19T23:49:11;23.70;73.20
78028;DHT22;67235;45.638;11.714;2023-06-19T23:51:37;23.80;73.30
78028;DHT22;67235;45.638;11.714;2023-06-19T23:54:03;23.80;73.40
78028;DHT22;67235;45.638;11.714;2023-06-19T23:56:29;23.70;73.50
78028;DHT22;67235;45.638;11.714;2023-06-19T23:58:55;23.90;73.30
